Time;durP1;ratioP1;P1;durP2;ratioP2;P2;SDS_P1;SDS_P2;PMS_P1;PMS_P2;Temp;Humidity;BMP_temperature;BMP_pressure;BME280_temperature;BME280_humidity;BME280_pressure;Samples;Min_cycle;Max_cycle;Signal;HPM_P1;HPM_P2
2022/01/25 00:08:44;;;;;;;49.83;27.80;;;4.30;99.90;;;;;;4968459;28;20208;-78
2022/01/25 00:27:14;;;;;;;53.23;29.37;;;4.30;99.90;;;;;;4984040;28;20204;-80
2022/01/25 00:32:06;;;;;;;59.30;30.73;;;4.30;99.90;;;;;;4971155;28;20176;-80
2022/01/25 00:34:32;;;;;;;60.90;31.53;;;4.20;99.90;;;;;;4954525;28;20692;-79
2022/01/25 00:36:58;;;;;;;63.13;30.13;;;4.20;99.90;;;;;;4968967;28;20235;-78
2022/01/25 00:39:24;;;;;;;60.03;31.70;;;4.20;99.90;;;;;;4951388;28;20211;-80
2022/01/25 00:41:49;;;;;;;60.40;31.60;;;4.20;99.90;;;;;;4963289;28;20180;-81
2022/01/25 00:44:16;;;;;;;60.93;31.57;;;4.30;99.90;;;;;;4968418;28;20251;-80
2022/01/25 00:46:43;;;;;;;65.60;32.70;;;4.30;99.90;;;;;;4952232;28;20203;-81
2022/01/25 00:49:11;;;;;;;63.50;32.23;;;4.40;99.90;;;;;;4969605;28;20176;-80
2022/01/25 00:56:46;;;;;;;62.33;32.03;;;4.40;99.90;;;;;;4970911;28;20207;-79
2022/01/25 00:59:15;;;;;;;62.57;32.10;;;4.30;99.90;;;;;;4965408;28;20184;-81
2022/01/25 01:01:42;;;;;;;70.53;33.90;;;4.30;99.90;;;;;;4956022;28;20184;-80
2022/01/25 01:04:08;;;;;;;68.17;33.07;;;4.30;99.90;;;;;;4940341;28;20176;-80
2022/01/25 01:06:35;;;;;;;65.73;33.50;;;4.30;99.90;;;;;;4960726;28;20222;-79
2022/01/25 01:09:01;;;;;;;73.37;36.50;;;4.30;99.90;;;;;;4944500;29;20261;-79
2022/01/25 01:11:35;;;;;;;70.47;35.47;;;4.30;99.90;;;;;;4945597;29;20184;-80
2022/01/25 01:14:15;;;;;;;76.90;35.83;;;4.30;99.90;;;;;;4948654;28;20175;-80
2022/01/25 01:17:00;;;;;;;71.63;35.43;;;4.30;99.90;;;;;;4947431;28;20211;-80
2022/01/25 01:41:57;;;;;;;82.57;38.30;;;4.20;99.90;;;;;;4977714;28;20207;-81
2022/01/25 01:44:28;;;;;;;81.67;39.03;;;4.20;99.90;;;;;;4946482;28;20176;-80
2022/01/25 01:47:03;;;;;;;90.23;40.63;;;4.20;99.90;;;;;;4958587;29;20271;-81
2022/01/25 01:49:43;;;;;;;86.27;38.40;;;4.20;99.90;;;;;;4943803;28;20180;-81
2022/01/25 01:52:11;;;;;;;88.07;40.33;;;4.20;99.90;;;;;;4945660;28;20192;-80
2022/01/25 01:54:38;;;;;;;86.77;39.50;;;4.20;99.90;;;;;;4949468;28;20185;-80
2022/01/25 01:57:06;;;;;;;86.47;40.20;;;4.20;99.90;;;;;;4947909;28;20199;-78
2022/01/25 01:59:32;;;;;;;87.67;41.23;;;4.20;99.90;;;;;;4963316;28;20274;-80
2022/01/25 02:01:58;;;;;;;91.40;42.47;;;4.20;99.90;;;;;;4945062;28;20172;-79
2022/01/25 02:04:24;;;;;;;89.77;40.90;;;4.20;99.90;;;;;;4953195;28;20180;-80
2022/01/25 02:06:51;;;;;;;94.47;42.37;;;4.10;99.90;;;;;;4961118;28;20205;-80
2022/01/25 02:09:17;;;;;;;88.17;40.90;;;4.10;99.90;;;;;;4953792;28;20178;-78
2022/01/25 02:11:43;;;;;;;84.67;39.40;;;4.20;99.90;;;;;;4950400;29;20232;-80
2022/01/25 02:14:12;;;;;;;92.23;41.63;;;4.20;99.90;;;;;;4963658;28;20188;-80
2022/01/25 02:17:00;;;;;;;85.23;40.17;;;4.20;99.90;;;;;;4966785;28;20247;-79
2022/01/25 02:22:29;;;;;;;90.67;41.70;;;4.20;99.90;;;;;;4967363;28;20271;-80
2022/01/25 02:24:55;;;;;;;88.57;40.37;;;4.20;99.90;;;;;;4949431;28;20212;-78
2022/01/25 02:27:21;;;;;;;92.80;42.03;;;4.10;99.90;;;;;;4951612;28;20200;-77
2022/01/25 02:29:47;;;;;;;90.53;41.30;;;4.10;99.90;;;;;;4946371;28;20964;-78
2022/01/25 02:32:14;;;;;;;88.43;41.50;;;4.10;99.90;;;;;;4944953;29;20204;-79
2022/01/25 02:34:40;;;;;;;89.97;42.67;;;4.10;99.90;;;;;;4968754;28;20199;-79
2022/01/25 02:37:11;;;;;;;90.97;42.20;;;4.10;99.90;;;;;;4966924;28;20211;-79
2022/01/25 02:39:38;;;;;;;96.03;42.50;;;4.10;99.90;;;;;;4948947;28;20183;-79
2022/01/25 02:42:06;;;;;;;88.67;41.13;;;4.00;99.90;;;;;;4959690;28;20176;-79
2022/01/25 02:44:34;;;;;;;90.83;40.60;;;4.00;99.90;;;;;;4959966;28;20168;-79
2022/01/25 02:49:34;;;;;;;93.27;43.30;;;4.10;99.90;;;;;;4985820;28;20268;-80
2022/01/25 02:52:00;;;;;;;93.23;43.13;;;4.10;99.90;;;;;;4976685;28;20219;-80
2022/01/25 02:54:27;;;;;;;100.77;43.23;;;4.00;99.90;;;;;;4943924;29;20184;-80
2022/01/25 02:56:53;;;;;;;92.13;42.00;;;4.00;99.90;;;;;;4944436;28;20212;-79
2022/01/25 02:59:19;;;;;;;95.10;42.10;;;4.00;99.90;;;;;;4963189;28;20185;-79
2022/01/25 03:01:46;;;;;;;91.13;41.83;;;4.00;99.90;;;;;;4954799;29;20181;-79
2022/01/25 03:04:14;;;;;;;95.63;42.27;;;4.00;99.90;;;;;;4950947;28;20175;-79
2022/01/25 03:06:43;;;;;;;94.40;42.60;;;4.00;99.90;;;;;;4972836;28;20201;-79
2022/01/25 03:09:09;;;;;;;93.40;42.67;;;4.00;99.90;;;;;;4968561;28;20180;-79
2022/01/25 03:11:35;;;;;;;89.70;42.10;;;4.00;99.90;;;;;;4945999;28;20187;-79
2022/01/25 03:14:06;;;;;;;95.57;42.47;;;4.00;99.90;;;;;;4939041;28;20176;-79
2022/01/25 03:16:42;;;;;;;101.73;45.60;;;4.00;99.90;;;;;;4973105;28;20243;-80
2022/01/25 03:19:44;;;;;;;99.33;44.63;;;4.00;99.90;;;;;;4959436;28;20207;-79
2022/01/25 03:22:43;;;;;;;91.23;41.73;;;4.00;99.90;;;;;;4966919;23;20247;-79
2022/01/25 03:25:14;;;;;;;96.10;41.57;;;4.00;99.90;;;;;;4961783;28;20180;-80
2022/01/25 03:27:43;;;;;;;97.40;42.87;;;4.00;99.90;;;;;;4964236;28;20190;-81
2022/01/25 03:30:10;;;;;;;94.50;42.30;;;4.00;99.90;;;;;;4964621;28;20528;-81
2022/01/25 03:32:39;;;;;;;98.50;43.47;;;4.00;99.90;;;;;;4954066;28;20204;-81
2022/01/25 03:35:05;;;;;;;96.17;44.03;;;3.90;99.90;;;;;;4945053;29;20192;-81
2022/01/25 03:37:31;;;;;;;104.37;43.47;;;3.90;99.90;;;;;;4960418;28;20208;-81
2022/01/25 03:39:57;;;;;;;93.00;41.43;;;4.00;99.90;;;;;;4947926;28;20179;-81
2022/01/25 03:42:25;;;;;;;97.67;42.87;;;4.00;99.90;;;;;;4960824;29;20211;-80
2022/01/25 03:44:51;;;;;;;97.67;43.17;;;4.00;99.90;;;;;;4954374;28;20162;-80
2022/01/25 03:47:22;;;;;;;92.93;42.13;;;4.00;99.90;;;;;;4959921;29;20181;-82
2022/01/25 03:49:51;;;;;;;101.87;45.20;;;4.00;99.90;;;;;;4946335;29;20182;-80
2022/01/25 03:52:24;;;;;;;95.87;42.50;;;4.00;99.90;;;;;;4964008;28;20195;-80
2022/01/25 03:54:50;;;;;;;96.97;44.67;;;3.90;99.90;;;;;;4963086;28;20206;-79
2022/01/25 03:57:17;;;;;;;100.90;44.17;;;3.80;99.90;;;;;;4951524;28;20211;-80
2022/01/25 03:59:44;;;;;;;97.53;43.40;;;3.80;99.90;;;;;;4968593;28;20282;-79
2022/01/25 04:02:11;;;;;;;95.20;43.27;;;3.80;99.90;;;;;;4965266;29;20197;-79
2022/01/25 04:04:38;;;;;;;98.63;43.57;;;3.80;99.90;;;;;;4962550;28;20181;-80
2022/01/25 04:07:09;;;;;;;97.57;43.73;;;3.80;99.90;;;;;;4967974;28;20181;-80
2022/01/25 04:09:36;;;;;;;101.70;44.50;;;3.90;99.90;;;;;;4964630;29;20184;-80
2022/01/25 04:12:03;;;;;;;101.80;45.27;;;3.90;99.90;;;;;;4964414;28;20204;-80
2022/01/25 04:14:29;;;;;;;102.33;45.70;;;3.80;99.90;;;;;;4964281;28;20254;-80
2022/01/25 04:17:08;;;;;;;103.60;46.00;;;3.80;99.90;;;;;;4967102;28;20294;-80
2022/01/25 04:19:39;;;;;;;102.23;44.90;;;3.90;99.90;;;;;;4944385;28;20226;-79
2022/01/25 04:25:13;;;;;;;98.67;43.23;;;3.90;99.90;;;;;;4963838;28;20624;-80
2022/01/25 04:27:40;;;;;;;97.03;44.03;;;3.80;99.90;;;;;;4947019;29;20188;-80
2022/01/25 04:30:07;;;;;;;95.33;42.90;;;3.80;99.90;;;;;;4962541;29;20640;-80
2022/01/25 04:32:42;;;;;;;99.33;44.47;;;3.80;99.90;;;;;;4963340;29;20211;-80
2022/01/25 04:49:30;;;;;;;99.93;44.23;;;3.90;99.90;;;;;;4948445;29;20182;-80
2022/01/25 04:54:40;;;;;;;94.13;43.77;;;3.90;99.90;;;;;;4960532;28;20196;-80
2022/01/25 05:05:13;;;;;;;103.37;46.47;;;4.00;99.90;;;;;;4967834;29;20165;-80
2022/01/25 05:10:09;;;;;;;100.47;46.83;;;3.90;99.90;;;;;;4950114;29;20185;-81
2022/01/25 05:18:04;;;;;;;97.80;45.63;;;3.90;99.90;;;;;;4950034;29;20219;-81
2022/01/25 05:23:14;;;;;;;99.50;45.37;;;4.00;99.90;;;;;;4955956;28;20211;-79
2022/01/25 05:25:41;;;;;;;99.70;45.77;;;3.90;99.90;;;;;;4942881;28;20234;-80
2022/01/25 05:28:06;;;;;;;97.47;44.77;;;3.80;99.90;;;;;;4950666;28;20180;-80
2022/01/25 05:30:32;;;;;;;97.83;44.93;;;3.80;99.90;;;;;;4950383;28;20190;-81
2022/01/25 05:32:58;;;;;;;98.80;45.47;;;3.90;99.90;;;;;;4951106;28;20263;-81
2022/01/25 05:35:23;;;;;;;97.23;44.17;;;3.90;99.90;;;;;;4951365;28;20275;-80
2022/01/25 05:37:49;;;;;;;98.87;45.03;;;3.90;99.90;;;;;;4952667;28;20221;-80
2022/01/25 05:40:29;;;;;;;94.87;45.27;;;4.00;99.90;;;;;;4951890;28;20176;-80
2022/01/25 05:48:24;;;;;;;94.80;44.63;;;3.90;99.90;;;;;;4968837;28;20176;-81
2022/01/25 05:50:49;;;;;;;94.10;45.43;;;4.00;99.90;;;;;;4970393;28;20278;-81
2022/01/25 05:53:15;;;;;;;97.73;45.00;;;3.90;99.90;;;;;;4972868;28;20212;-81
2022/01/25 05:55:41;;;;;;;96.07;45.47;;;4.00;99.90;;;;;;4946707;29;20213;-80
2022/01/25 05:58:08;;;;;;;97.43;45.27;;;4.00;99.90;;;;;;4936056;29;20211;-81
2022/01/25 06:00:36;;;;;;;98.17;45.63;;;4.00;99.90;;;;;;4932335;29;20276;-81
2022/01/25 06:03:04;;;;;;;99.93;45.27;;;3.90;99.90;;;;;;4931053;29;20200;-81
2022/01/25 06:05:30;;;;;;;101.00;45.30;;;3.90;99.90;;;;;;4946101;29;20236;-79
2022/01/25 06:08:04;;;;;;;99.03;46.33;;;3.80;99.90;;;;;;4945858;29;20467;-80
2022/01/25 06:10:30;;;;;;;95.90;43.87;;;3.90;99.90;;;;;;4944738;29;20673;-80
2022/01/25 06:12:56;;;;;;;100.20;44.70;;;3.90;99.90;;;;;;4945278;28;20204;-80
2022/01/25 06:15:22;;;;;;;98.20;45.80;;;3.90;99.90;;;;;;4929998;29;20279;-79
2022/01/25 06:17:57;;;;;;;101.53;46.90;;;3.90;99.90;;;;;;4932061;28;20203;-80
2022/01/25 06:20:23;;;;;;;94.53;43.50;;;3.90;99.90;;;;;;4939549;28;20172;-80
2022/01/25 06:22:49;;;;;;;97.60;44.30;;;3.90;99.90;;;;;;4941975;28;20211;-80
2022/01/25 06:25:16;;;;;;;95.20;45.17;;;3.90;99.90;;;;;;4949031;28;20172;-80
2022/01/25 06:27:44;;;;;;;96.80;45.93;;;3.90;99.90;;;;;;4964815;28;20698;-80
2022/01/25 06:30:17;;;;;;;106.67;45.73;;;3.90;99.90;;;;;;4965386;28;20187;-79
2022/01/25 06:32:45;;;;;;;100.33;46.17;;;4.00;99.90;;;;;;4965298;28;20200;-81
2022/01/25 06:35:11;;;;;;;103.73;45.90;;;3.80;99.90;;;;;;4968701;28;20184;-80
2022/01/25 06:37:37;;;;;;;104.63;45.53;;;3.80;99.90;;;;;;4968679;28;20207;-81
2022/01/25 06:40:07;;;;;;;110.87;45.97;;;3.80;99.90;;;;;;4950974;28;20180;-81
2022/01/25 06:42:35;;;;;;;93.93;43.63;;;3.80;99.90;;;;;;4968482;28;20234;-81
2022/01/25 06:45:06;;;;;;;100.67;45.07;;;3.80;99.90;;;;;;4966995;28;20180;-81
2022/01/25 06:47:32;;;;;;;96.37;44.70;;;3.80;99.90;;;;;;4964134;28;20210;-80
2022/01/25 06:49:57;;;;;;;98.00;44.53;;;3.80;99.90;;;;;;4963838;28;20592;-80
2022/01/25 06:52:24;;;;;;;99.03;44.47;;;3.80;99.90;;;;;;4942010;29;20204;-81
2022/01/25 06:54:50;;;;;;;100.40;43.77;;;3.80;99.90;;;;;;4949727;28;20211;-81
2022/01/25 06:57:18;;;;;;;106.83;45.10;;;3.80;99.90;;;;;;4963948;28;20243;-80
2022/01/25 06:59:44;;;;;;;98.37;44.37;;;3.80;99.90;;;;;;4947577;28;20208;-80
2022/01/25 07:02:12;;;;;;;107.00;45.90;;;3.80;99.90;;;;;;4963836;28;20212;-79
2022/01/25 07:04:38;;;;;;;98.37;44.30;;;3.80;99.90;;;;;;4963566;28;20184;-79
2022/01/25 07:07:04;;;;;;;100.37;45.13;;;3.80;99.90;;;;;;4963733;28;20251;-80
2022/01/25 07:09:32;;;;;;;94.57;43.03;;;3.80;99.90;;;;;;4962911;28;20661;-81
2022/01/25 07:11:58;;;;;;;97.47;43.93;;;3.90;99.90;;;;;;4946292;28;20204;-79
2022/01/25 07:14:23;;;;;;;91.10;40.60;;;3.90;99.90;;;;;;4947781;28;20276;-80
2022/01/25 07:16:50;;;;;;;97.97;43.17;;;3.90;99.90;;;;;;4935940;29;20295;-80
2022/01/25 07:19:19;;;;;;;97.10;44.87;;;3.90;99.90;;;;;;4942292;28;20208;-80
2022/01/25 07:21:44;;;;;;;104.20;45.23;;;3.90;99.90;;;;;;4947369;28;20172;-81
2022/01/25 07:24:10;;;;;;;100.73;44.93;;;3.90;99.90;;;;;;4959415;28;20270;-81
2022/01/25 07:26:41;;;;;;;97.43;43.10;;;3.90;99.90;;;;;;4933354;29;20239;-81
2022/01/25 07:29:06;;;;;;;99.33;43.97;;;3.90;99.90;;;;;;4933191;29;20192;-80
2022/01/25 07:31:32;;;;;;;102.10;44.53;;;3.90;99.90;;;;;;4931776;29;20173;-79
2022/01/25 07:33:58;;;;;;;101.27;44.80;;;3.90;99.90;;;;;;4932982;29;20219;-80
2022/01/25 07:36:25;;;;;;;103.43;44.37;;;3.80;99.90;;;;;;4933163;29;20180;-81
2022/01/25 07:38:51;;;;;;;105.50;45.37;;;3.70;99.90;;;;;;4932693;29;20187;-80
2022/01/25 07:41:17;;;;;;;102.73;45.93;;;3.70;99.90;;;;;;4932650;29;20216;-80
2022/01/25 07:43:45;;;;;;;109.73;45.93;;;3.70;99.90;;;;;;4933083;29;20220;-80
2022/01/25 07:46:11;;;;;;;107.63;46.40;;;3.70;99.90;;;;;;4933400;29;20177;-81
2022/01/25 07:48:37;;;;;;;105.00;46.57;;;3.70;99.90;;;;;;4931982;29;20199;-81
2022/01/25 07:51:03;;;;;;;101.60;44.23;;;3.70;99.90;;;;;;4932442;29;20205;-81
2022/01/25 07:53:28;;;;;;;105.00;45.83;;;3.80;99.90;;;;;;4939254;28;20271;-79
2022/01/25 07:55:54;;;;;;;97.33;43.07;;;3.80;99.90;;;;;;4931170;29;20184;-80
2022/01/25 07:58:26;;;;;;;97.03;42.90;;;3.90;99.90;;;;;;4932616;29;20667;-80
2022/01/25 08:00:52;;;;;;;95.90;43.63;;;3.80;99.90;;;;;;4931001;29;20185;-80
2022/01/25 08:03:18;;;;;;;97.63;44.03;;;3.80;99.90;;;;;;4931004;29;20184;-80
2022/01/25 08:05:45;;;;;;;102.17;44.40;;;3.80;99.90;;;;;;4946688;29;20191;-79
2022/01/25 08:08:12;;;;;;;100.63;43.80;;;3.90;99.90;;;;;;4930934;29;20172;-80
2022/01/25 08:10:38;;;;;;;98.00;43.33;;;3.80;99.90;;;;;;4930564;29;20287;-80
2022/01/25 08:13:04;;;;;;;90.93;43.00;;;3.90;99.90;;;;;;4931940;29;20201;-80
2022/01/25 08:15:30;;;;;;;98.43;43.20;;;3.90;99.90;;;;;;4947349;29;20304;-80
2022/01/25 08:17:56;;;;;;;95.77;43.50;;;3.90;99.90;;;;;;4931641;29;20280;-80
2022/01/25 08:20:23;;;;;;;93.37;41.00;;;3.90;99.90;;;;;;4930679;29;20234;-80
2022/01/25 08:22:50;;;;;;;104.07;44.00;;;3.80;99.90;;;;;;4934211;28;20208;-80
2022/01/25 08:25:17;;;;;;;103.23;43.67;;;3.90;99.90;;;;;;4943102;28;20160;-81
2022/01/25 08:27:43;;;;;;;97.87;43.73;;;3.90;99.90;;;;;;4966921;28;20196;-81
2022/01/25 08:30:09;;;;;;;91.03;40.73;;;4.00;99.90;;;;;;4928120;29;20193;-81
2022/01/25 08:32:35;;;;;;;95.40;43.27;;;4.00;99.90;;;;;;4927650;29;20673;-81
2022/01/25 08:35:01;;;;;;;94.50;43.30;;;4.00;99.90;;;;;;4929731;29;20265;-81
2022/01/25 08:37:27;;;;;;;94.97;41.97;;;4.00;99.90;;;;;;4929207;29;20269;-82
2022/01/25 08:39:53;;;;;;;96.67;42.67;;;3.90;99.90;;;;;;4928910;29;20215;-81
2022/01/25 08:42:20;;;;;;;98.93;43.67;;;3.90;99.90;;;;;;4929533;29;20201;-81
2022/01/25 08:44:45;;;;;;;94.90;40.40;;;4.00;99.90;;;;;;4928982;29;20205;-79
2022/01/25 08:47:13;;;;;;;93.57;41.53;;;4.00;99.90;;;;;;4928522;29;20597;-80
2022/01/25 08:49:39;;;;;;;101.80;42.87;;;4.00;99.90;;;;;;4928322;29;20185;-80
2022/01/25 08:52:06;;;;;;;88.77;41.20;;;3.90;99.90;;;;;;4950192;29;20311;-79
2022/01/25 08:54:32;;;;;;;95.30;42.30;;;3.90;99.90;;;;;;4947792;28;20365;-79
2022/01/25 08:56:58;;;;;;;96.37;42.27;;;3.90;99.90;;;;;;4947660;29;20212;-79
2022/01/25 08:59:24;;;;;;;97.20;42.40;;;3.90;99.90;;;;;;4952141;28;20211;-80
2022/01/25 09:01:50;;;;;;;95.80;42.27;;;3.80;99.90;;;;;;4946839;29;20184;-80
2022/01/25 09:04:16;;;;;;;93.77;41.37;;;3.80;99.90;;;;;;4931173;29;20188;-80
2022/01/25 09:06:42;;;;;;;100.23;41.20;;;3.80;99.90;;;;;;4931636;29;20196;-80
2022/01/25 09:09:09;;;;;;;101.57;43.27;;;3.80;99.90;;;;;;4940389;29;20177;-79
2022/01/25 09:11:40;;;;;;;104.47;43.30;;;3.80;99.90;;;;;;4957434;29;20181;-80
2022/01/25 09:14:06;;;;;;;103.27;43.90;;;3.80;99.90;;;;;;4957540;29;20343;-80
2022/01/25 09:16:33;;;;;;;112.53;44.50;;;3.90;99.90;;;;;;4950181;29;20311;-78
2022/01/25 09:19:00;;;;;;;100.27;44.20;;;3.80;99.90;;;;;;4949715;29;20191;-80
2022/01/25 09:21:26;;;;;;;104.20;44.57;;;3.80;99.90;;;;;;4953510;29;20176;-79
2022/01/25 09:23:54;;;;;;;104.77;43.40;;;3.80;99.90;;;;;;4956896;29;20220;-80
2022/01/25 09:26:21;;;;;;;99.03;43.07;;;3.80;99.90;;;;;;4946313;28;20184;-81
2022/01/25 09:28:47;;;;;;;102.63;42.63;;;3.80;99.90;;;;;;4969139;28;20195;-80
2022/01/25 09:31:13;;;;;;;103.67;43.47;;;3.90;99.90;;;;;;4947764;28;20183;-80
2022/01/25 09:33:44;;;;;;;108.93;43.90;;;3.90;99.90;;;;;;4947501;28;20214;-79
2022/01/25 09:36:10;;;;;;;103.57;42.30;;;3.90;99.90;;;;;;4963257;28;20223;-80
2022/01/25 09:38:35;;;;;;;105.60;43.57;;;3.90;99.90;;;;;;4946193;28;20223;-80
2022/01/25 09:41:02;;;;;;;102.10;41.97;;;3.90;99.90;;;;;;4946241;28;20176;-80
2022/01/25 09:43:28;;;;;;;109.43;43.40;;;3.80;99.90;;;;;;4963634;28;20204;-79
2022/01/25 09:45:55;;;;;;;111.13;42.63;;;3.90;99.90;;;;;;4946952;28;20176;-80
2022/01/25 09:48:24;;;;;;;109.27;43.93;;;3.80;99.90;;;;;;4946562;28;20255;-80
2022/01/25 09:50:50;;;;;;;105.33;43.00;;;3.90;99.90;;;;;;4946663;28;20180;-80
2022/01/25 09:53:19;;;;;;;106.33;42.33;;;3.90;99.90;;;;;;4947947;28;20209;-79
2022/01/25 09:55:45;;;;;;;108.70;43.43;;;3.90;99.90;;;;;;4951446;29;20280;-79
2022/01/25 09:58:13;;;;;;;110.63;43.80;;;4.00;99.90;;;;;;4929152;29;20552;-80
2022/01/25 10:00:40;;;;;;;104.67;42.63;;;4.00;99.90;;;;;;4944197;29;20580;-80
2022/01/25 10:03:18;;;;;;;96.10;41.03;;;4.00;99.90;;;;;;4945135;29;20207;-80
2022/01/25 10:05:46;;;;;;;103.40;42.93;;;4.00;99.90;;;;;;4945312;29;20264;-80
2022/01/25 10:08:20;;;;;;;99.13;41.17;;;4.00;99.90;;;;;;4944535;29;20596;-80
2022/01/25 10:10:52;;;;;;;102.23;41.60;;;4.00;99.90;;;;;;4928027;29;20184;-79
2022/01/25 10:13:23;;;;;;;107.73;42.53;;;4.00;99.90;;;;;;4943093;29;20343;-80
2022/01/25 10:16:07;;;;;;;109.87;42.60;;;4.00;99.90;;;;;;4927132;29;20181;-79
2022/01/25 10:18:50;;;;;;;113.20;43.20;;;4.00;99.90;;;;;;4943278;29;20208;-79
2022/01/25 10:21:34;;;;;;;109.10;43.00;;;4.00;99.90;;;;;;4928279;29;20188;-80
2022/01/25 10:24:02;;;;;;;106.53;41.90;;;4.00;99.90;;;;;;4953070;29;20213;-79
2022/01/25 10:26:34;;;;;;;111.03;43.17;;;4.10;99.90;;;;;;4933488;29;20180;-79
2022/01/25 10:29:01;;;;;;;115.53;44.13;;;4.10;99.90;;;;;;4951795;29;20189;-80
2022/01/25 10:31:42;;;;;;;107.37;41.67;;;4.10;99.90;;;;;;4964249;28;20279;-80
2022/01/25 10:34:12;;;;;;;109.83;42.20;;;4.10;99.90;;;;;;4959816;28;20168;-80
2022/01/25 10:36:45;;;;;;;104.67;40.10;;;4.20;99.90;;;;;;4967220;28;20185;-79
2022/01/25 10:39:13;;;;;;;100.07;39.27;;;4.20;99.90;;;;;;4956141;29;20230;-79
2022/01/25 10:41:40;;;;;;;103.37;40.90;;;4.20;99.90;;;;;;4952380;29;20278;-79
2022/01/25 10:44:07;;;;;;;102.93;41.17;;;4.30;99.90;;;;;;4966710;28;20183;-79
2022/01/25 10:46:34;;;;;;;102.17;41.23;;;4.30;99.90;;;;;;4968951;28;20200;-79
2022/01/25 10:49:07;;;;;;;105.00;41.50;;;4.30;99.90;;;;;;4964765;28;20189;-81
2022/01/25 10:51:42;;;;;;;99.80;40.07;;;4.30;99.90;;;;;;4948340;29;20241;-81
2022/01/25 10:54:20;;;;;;;108.97;42.03;;;4.40;99.90;;;;;;4931930;29;20193;-81
2022/01/25 10:56:59;;;;;;;96.37;39.90;;;4.50;99.90;;;;;;4929243;29;20522;-80
2022/01/25 10:59:32;;;;;;;100.33;39.30;;;4.50;99.90;;;;;;4927548;29;20197;-82
2022/01/25 11:02:05;;;;;;;90.67;38.87;;;4.50;99.90;;;;;;4933208;29;20253;-81
2022/01/25 11:04:41;;;;;;;96.73;39.20;;;4.50;99.90;;;;;;4939034;29;20183;-81
2022/01/25 11:07:09;;;;;;;91.00;38.20;;;4.50;99.90;;;;;;4954216;29;20200;-80
2022/01/25 11:09:44;;;;;;;90.70;39.37;;;4.60;99.90;;;;;;4952069;28;20204;-80
2022/01/25 11:12:17;;;;;;;84.93;37.20;;;4.60;99.90;;;;;;4951147;29;20200;-81
2022/01/25 11:14:53;;;;;;;86.90;37.20;;;4.60;99.90;;;;;;4952571;29;20184;-80
2022/01/25 11:17:24;;;;;;;87.90;36.70;;;4.60;99.90;;;;;;4951011;29;20300;-80
2022/01/25 11:19:57;;;;;;;90.97;38.83;;;4.60;99.90;;;;;;4968236;28;20169;-81
2022/01/25 11:22:24;;;;;;;86.23;36.43;;;4.60;99.90;;;;;;4951714;29;20219;-81
2022/01/25 11:25:00;;;;;;;96.23;38.83;;;4.60;99.90;;;;;;4946889;29;20269;-78
2022/01/25 11:27:28;;;;;;;92.37;39.07;;;4.60;99.90;;;;;;4932201;29;20189;-81
2022/01/25 11:30:09;;;;;;;87.50;36.93;;;4.60;99.90;;;;;;4935062;29;20192;-81
2022/01/25 11:32:40;;;;;;;89.53;36.90;;;4.70;99.90;;;;;;4931406;29;20300;-81
2022/01/25 11:35:11;;;;;;;98.37;38.70;;;4.70;99.90;;;;;;4930956;29;20185;-82
2022/01/25 11:37:44;;;;;;;93.73;38.57;;;4.70;99.90;;;;;;4929967;29;20300;-81
2022/01/25 11:40:33;;;;;;;92.83;38.33;;;4.70;99.90;;;;;;4931113;28;20183;-81
2022/01/25 11:43:04;;;;;;;91.23;37.37;;;4.70;99.90;;;;;;4929040;29;20197;-81
2022/01/25 11:45:34;;;;;;;91.30;36.80;;;4.70;99.90;;;;;;4934940;29;20199;-81
2022/01/25 11:48:03;;;;;;;90.00;38.10;;;4.80;99.90;;;;;;4949487;29;20182;-81
2022/01/25 11:50:37;;;;;;;83.57;36.90;;;4.80;99.90;;;;;;4933102;29;20168;-81
2022/01/25 11:53:07;;;;;;;84.80;36.33;;;4.80;99.90;;;;;;4947759;28;20204;-82
2022/01/25 11:55:55;;;;;;;84.43;36.53;;;4.80;99.90;;;;;;4960534;28;20172;-81
2022/01/25 11:58:21;;;;;;;87.90;35.77;;;4.80;99.90;;;;;;4970292;28;20330;-81
2022/01/25 12:00:48;;;;;;;81.17;35.43;;;4.80;99.90;;;;;;4967736;28;20204;-82
2022/01/25 12:03:26;;;;;;;86.20;37.40;;;4.80;99.90;;;;;;4968833;28;20196;-81
2022/01/25 12:06:07;;;;;;;86.60;36.07;;;4.80;99.90;;;;;;4969571;28;20180;-81
2022/01/25 12:08:41;;;;;;;84.50;34.00;;;4.80;99.90;;;;;;4968191;28;20174;-81
2022/01/25 12:11:52;;;;;;;82.10;34.47;;;4.80;99.90;;;;;;4967796;28;20257;-80
2022/01/25 12:14:24;;;;;;;80.90;34.00;;;4.80;99.90;;;;;;4965103;28;20632;-80
2022/01/25 12:16:54;;;;;;;83.97;35.40;;;4.80;99.90;;;;;;4949772;28;20180;-80
2022/01/25 12:19:53;;;;;;;81.37;32.83;;;4.80;99.90;;;;;;4966227;28;20187;-81
2022/01/25 12:22:42;;;;;;;77.67;31.93;;;4.80;99.90;;;;;;4975388;28;20264;-81
2022/01/25 12:25:32;;;;;;;71.47;31.47;;;4.70;99.90;;;;;;4946988;29;20192;-81
2022/01/25 12:28:08;;;;;;;71.80;31.77;;;4.80;99.90;;;;;;4947337;29;20209;-80
2022/01/25 12:30:43;;;;;;;73.07;31.30;;;4.70;99.90;;;;;;4946392;29;20292;-81
2022/01/25 12:33:27;;;;;;;70.33;30.70;;;4.80;99.90;;;;;;4946797;29;20212;-80
2022/01/25 12:36:07;;;;;;;75.00;30.77;;;4.80;99.90;;;;;;4946679;29;20628;-80
2022/01/25 12:38:38;;;;;;;72.67;31.33;;;4.80;99.90;;;;;;4947881;29;20211;-81
2022/01/25 12:41:12;;;;;;;75.17;30.70;;;4.70;99.90;;;;;;4951726;29;20185;-82
2022/01/25 12:43:56;;;;;;;73.33;31.27;;;4.80;99.90;;;;;;4949977;29;20200;-81
2022/01/25 12:46:28;;;;;;;70.70;29.97;;;4.80;99.90;;;;;;4931692;29;20177;-80
2022/01/25 12:48:56;;;;;;;70.63;29.60;;;4.90;99.90;;;;;;4962586;29;20184;-81
2022/01/25 12:51:28;;;;;;;64.60;27.57;;;4.90;99.90;;;;;;4961957;29;20180;-80
2022/01/25 12:53:56;;;;;;;60.77;28.23;;;5.00;99.90;;;;;;4960526;28;20205;-80
2022/01/25 12:56:34;;;;;;;58.90;27.83;;;4.90;99.90;;;;;;4974022;28;20184;-80
2022/01/25 12:59:24;;;;;;;60.20;26.43;;;4.90;99.90;;;;;;4967356;28;20235;-81
2022/01/25 13:01:51;;;;;;;52.77;25.37;;;4.90;99.90;;;;;;4968885;28;20177;-81
2022/01/25 13:04:19;;;;;;;59.40;26.57;;;4.90;99.90;;;;;;4961716;28;20583;-80
2022/01/25 13:06:50;;;;;;;60.43;27.83;;;4.90;99.90;;;;;;4943647;29;20181;-81
2022/01/25 13:12:13;;;;;;;57.20;26.60;;;5.00;99.90;;;;;;4959118;28;20180;-80
2022/01/25 13:15:04;;;;;;;51.10;25.53;;;5.00;99.90;;;;;;4942248;29;20177;-81
2022/01/25 13:17:31;;;;;;;56.70;26.00;;;5.00;99.90;;;;;;4942523;29;20205;-81
2022/01/25 13:20:02;;;;;;;50.60;25.50;;;5.00;99.90;;;;;;4943755;29;20181;-80
2022/01/25 13:22:38;;;;;;;49.10;23.23;;;5.00;99.90;;;;;;4943479;28;20260;-81
2022/01/25 13:27:58;;;;;;;50.37;24.00;;;5.00;99.90;;;;;;4945337;29;20208;-81
2022/01/25 13:30:41;;;;;;;47.77;23.07;;;5.00;99.90;;;;;;4946707;29;20185;-80
2022/01/25 14:24:56;;;;;;;35.43;19.33;;;5.00;99.90;;;;;;4947713;28;20178;-81
2022/01/25 14:27:32;;;;;;;35.87;19.17;;;5.00;99.90;;;;;;4939754;29;20208;-81
2022/01/25 14:29:58;;;;;;;34.47;18.47;;;5.10;99.90;;;;;;4949229;29;20204;-81
2022/01/25 14:32:29;;;;;;;37.57;18.93;;;5.00;99.90;;;;;;4929818;29;20694;-81
2022/01/25 14:35:05;;;;;;;35.13;19.47;;;5.00;99.90;;;;;;4945232;29;20189;-82
2022/01/25 14:37:40;;;;;;;37.83;19.80;;;5.00;99.90;;;;;;4929280;29;20301;-80
2022/01/25 14:40:18;;;;;;;36.30;18.53;;;5.00;99.90;;;;;;4929166;28;20247;-81
2022/01/25 14:42:47;;;;;;;38.50;18.90;;;4.90;99.90;;;;;;4946004;28;20204;-81
2022/01/25 14:45:20;;;;;;;37.83;18.40;;;4.90;99.90;;;;;;4949311;28;20223;-82
2022/01/25 14:47:48;;;;;;;37.20;18.80;;;4.90;99.90;;;;;;4964327;28;20194;-82
2022/01/25 14:50:33;;;;;;;42.87;19.80;;;4.80;99.90;;;;;;4963183;28;20192;-82
2022/01/25 14:53:02;;;;;;;41.20;19.17;;;4.90;99.90;;;;;;4953181;29;20248;-81
2022/01/25 14:55:31;;;;;;;41.70;19.37;;;4.90;99.90;;;;;;4932545;29;20192;-81
2022/01/25 14:58:22;;;;;;;40.83;19.70;;;4.80;99.90;;;;;;4947313;29;20532;-82
2022/01/25 15:00:56;;;;;;;39.93;20.67;;;4.90;99.90;;;;;;4930424;29;20180;-81
2022/01/25 15:03:24;;;;;;;38.30;19.43;;;4.90;99.90;;;;;;4945935;29;20232;-81
2022/01/25 15:05:51;;;;;;;41.50;19.67;;;4.90;99.90;;;;;;4930814;29;20212;-80
2022/01/25 15:08:20;;;;;;;132.20;24.97;;;4.90;99.90;;;;;;4932223;29;20177;-82
2022/01/25 15:10:47;;;;;;;38.73;20.33;;;4.90;99.90;;;;;;4932959;29;20184;-81
2022/01/25 15:13:24;;;;;;;39.73;19.03;;;5.00;99.90;;;;;;4930003;29;20211;-81
2022/01/25 15:15:57;;;;;;;36.53;18.73;;;4.90;99.90;;;;;;4929860;29;20188;-81
2022/01/25 15:18:35;;;;;;;36.80;18.97;;;4.90;99.90;;;;;;4942039;29;20209;-77
2022/01/25 15:21:04;;;;;;;36.23;18.90;;;4.90;99.90;;;;;;4927242;29;20264;-81
2022/01/25 15:23:33;;;;;;;36.20;19.20;;;4.90;99.90;;;;;;4932875;29;20204;-82
2022/01/25 15:26:03;;;;;;;35.40;18.63;;;4.90;99.90;;;;;;4921868;29;20174;-77
2022/01/25 15:28:45;;;;;;;37.00;17.77;;;4.90;99.90;;;;;;4948229;29;20272;-81